Time;durP1;ratioP1;P1;durP2;ratioP2;P2;SDS_P1;SDS_P2;PMS_P1;PMS_P2;Temp;Humidity;BMP_temperature;BMP_pressure;BME280_temperature;BME280_humidity;BME280_pressure;Samples;Min_cycle;Max_cycle;Signal;HPM_P1;HPM_P2
2021/12/28 00:01:04;;;;;;;10.10;4.10;;;;;;;6.51;100.00;99247.78;2089450;28;20021;-64
2021/12/28 00:02:05;;;;;;;15.43;4.57;;;;;;;6.42;100.00;99239.56;2098280;28;20024;-64
2021/12/28 00:03:05;;;;;;;15.73;4.80;;;;;;;6.41;100.00;99244.81;2098317;28;20513;-65
2021/12/28 00:04:07;;;;;;;23.90;7.53;;;;;;;6.43;100.00;99233.44;2098309;28;20055;-64
2021/12/28 00:05:09;;;;;;;13.05;4.20;;;;;;;6.45;100.00;99238.56;2098319;28;20023;-64
2021/12/28 00:06:12;;;;;;;12.15;4.88;;;;;;;6.43;100.00;99235.19;2098318;28;20024;-64
2021/12/28 00:07:12;;;;;;;10.50;3.92;;;;;;;6.35;100.00;99238.19;2098190;28;20066;-64
2021/12/28 00:08:13;;;;;;;18.03;4.67;;;;;;;6.32;100.00;99235.75;2098289;28;20037;-65
2021/12/28 00:09:13;;;;;;;15.57;4.32;;;;;;;6.30;100.00;99229.81;2098352;28;20037;-64
2021/12/28 00:10:16;;;;;;;19.13;5.13;;;;;;;6.39;100.00;99234.53;2098322;28;20433;-64
2021/12/28 00:11:17;;;;;;;20.77;4.80;;;;;;;6.47;100.00;99233.31;2089386;28;20119;-64
2021/12/28 00:12:17;;;;;;;14.63;4.80;;;;;;;6.44;100.00;99240.31;2081081;28;20021;-64
2021/12/28 00:13:17;;;;;;;11.00;4.07;;;;;;;6.43;100.00;99240.38;2089489;28;20087;-65
2021/12/28 00:14:19;;;;;;;16.13;4.30;;;;;;;6.47;100.00;99238.47;2098243;28;20476;-64
2021/12/28 00:18:48;;;;;;;13.10;4.57;;;;;;;6.47;100.00;99230.72;2098389;28;20040;-63
2021/12/28 00:19:49;;;;;;;16.67;4.33;;;;;;;6.51;100.00;99232.22;2098075;28;20496;-64
2021/12/28 00:20:53;;;;;;;19.92;4.45;;;;;;;6.50;100.00;99235.75;2098273;28;20036;-64
2021/12/28 00:21:53;;;;;;;12.52;4.10;;;;;;;6.50;100.00;99230.56;2098250;28;20020;-64
2021/12/28 00:22:54;;;;;;;17.97;4.63;;;;;;;6.49;100.00;99229.72;2098253;28;20470;-64
2021/12/28 00:23:54;;;;;;;15.43;4.72;;;;;;;6.53;100.00;99235.56;2098251;28;20095;-64
2021/12/28 00:24:54;;;;;;;16.40;4.97;;;;;;;6.54;100.00;99229.47;2098099;28;20059;-64
2021/12/28 00:25:55;;;;;;;23.97;4.47;;;;;;;6.53;100.00;99232.97;2098253;28;20111;-64
2021/12/28 00:26:56;;;;;;;15.68;4.60;;;;;;;6.52;100.00;99226.13;2098206;28;20039;-64
2021/12/28 00:27:57;;;;;;;21.27;4.35;;;;;;;6.50;100.00;99225.38;2098086;28;20076;-64
2021/12/28 00:28:57;;;;;;;14.10;4.50;;;;;;;6.51;100.00;99216.69;2089298;28;20032;-63
2021/12/28 00:29:58;;;;;;;18.43;5.23;;;;;;;6.56;100.00;99219.84;2080855;28;20029;-64
2021/12/28 00:30:59;;;;;;;19.92;4.88;;;;;;;6.53;100.00;99226.03;2089535;28;20049;-65
2021/12/28 00:32:00;;;;;;;18.30;4.93;;;;;;;6.55;100.00;99224.22;2098112;28;20058;-64
2021/12/28 00:33:00;;;;;;;16.93;4.77;;;;;;;6.55;100.00;99218.19;2098224;28;20028;-64
2021/12/28 00:34:01;;;;;;;17.52;5.10;;;;;;;6.50;100.00;99215.00;2098208;28;20024;-64
2021/12/28 00:35:02;;;;;;;15.50;4.50;;;;;;;6.47;100.00;99215.16;2098211;28;20028;-64
2021/12/28 00:36:04;;;;;;;9.90;3.78;;;;;;;6.51;100.00;99216.69;2098166;28;20024;-64
2021/12/28 00:37:04;;;;;;;19.98;4.38;;;;;;;6.47;100.00;99217.75;2098162;28;20033;-64
2021/12/28 00:38:05;;;;;;;17.37;5.57;;;;;;;6.41;100.00;99211.97;2098218;28;20021;-65
2021/12/28 00:39:06;;;;;;;;;;;;;;;6.39;100.00;99213.78;2098534;28;20063;-64
2021/12/28 00:40:06;;;;;;;26.40;6.95;;;;;;;6.39;100.00;99213.78;2098152;28;19912;-64
2021/12/28 00:41:07;;;;;;;12.38;4.80;;;;;;;6.35;100.00;99217.47;2098163;28;20059;-64
2021/12/28 00:42:08;;;;;;;21.50;5.37;;;;;;;6.33;100.00;99211.50;2098255;28;20020;-65
2021/12/28 00:43:08;;;;;;;;;;;;;;;6.30;100.00;99214.28;2089496;28;20052;-65
2021/12/28 00:44:09;;;;;;;15.88;4.45;;;;;;;6.31;100.00;99210.75;2089230;28;19955;-64
2021/12/28 00:45:10;;;;;;;20.53;5.17;;;;;;;6.37;100.00;99212.19;2098059;28;20032;-64
2021/12/28 00:46:11;;;;;;;15.98;4.18;;;;;;;6.39;100.00;99213.78;2098127;28;20035;-64
2021/12/28 00:47:11;;;;;;;17.42;3.75;;;;;;;6.42;100.00;99212.78;2098184;28;20478;-64
2021/12/28 00:48:12;;;;;;;14.70;3.67;;;;;;;6.35;100.00;99212.28;2098134;28;20465;-64
2021/12/28 00:49:12;;;;;;;12.13;3.72;;;;;;;6.32;100.00;99207.25;2098075;28;20124;-63
2021/12/28 00:50:15;;;;;;;12.07;4.00;;;;;;;6.33;100.00;99214.09;2098171;28;20039;-64
2021/12/28 00:51:16;;;;;;;18.70;4.93;;;;;;;6.35;100.00;99207.09;2098083;28;20036;-64
2021/12/28 00:52:16;;;;;;;19.75;4.75;;;;;;;6.36;100.00;99203.59;2097486;28;20111;-64
2021/12/28 00:53:16;;;;;;;21.37;4.90;;;;;;;6.40;100.00;99201.69;2097642;28;20070;-64
2021/12/28 00:54:17;;;;;;;19.00;4.77;;;;;;;6.43;100.00;99201.50;2098191;28;20473;-64
2021/12/28 00:55:19;;;;;;;20.60;4.10;;;;;;;6.45;100.00;99204.88;2098143;28;20029;-64
2021/12/28 00:56:19;;;;;;;10.18;4.05;;;;;;;6.46;100.00;99203.13;2097996;28;20040;-64
2021/12/28 00:57:19;;;;;;;23.47;5.40;;;;;;;6.47;100.00;99197.03;2098101;28;20052;-63
2021/12/28 00:58:21;;;;;;;12.83;3.30;;;;;;;6.48;100.00;99202.13;2098030;28;20045;-64
2021/12/28 00:59:21;;;;;;;15.32;4.20;;;;;;;6.43;100.00;99199.75;2098114;28;20063;-64
2021/12/28 01:00:26;;;;;;;13.17;3.77;;;;;;;6.38;100.00;99196.59;2098030;28;20047;-64
2021/12/28 01:01:26;;;;;;;19.90;4.63;;;;;;;6.34;100.00;99195.06;2098071;28;20392;-65
2021/12/28 01:02:27;;;;;;;18.27;4.37;;;;;;;6.28;100.00;99196.22;2089130;28;20088;-64
2021/12/28 01:03:27;;;;;;;17.15;4.50;;;;;;;6.31;100.00;99192.63;2089072;28;20028;-64
2021/12/28 01:04:27;;;;;;;20.10;4.43;;;;;;;6.34;100.00;99200.25;2097934;28;20036;-64
2021/12/28 01:05:28;;;;;;;15.10;4.43;;;;;;;6.35;100.00;99191.56;2098066;28;20158;-64
2021/12/28 01:06:29;;;;;;;24.63;4.95;;;;;;;6.33;100.00;99193.38;2097989;28;20490;-65
2021/12/28 01:07:29;;;;;;;19.73;4.17;;;;;;;6.28;100.00;99190.19;2089139;28;20163;-64
2021/12/28 01:08:30;;;;;;;15.75;3.65;;;;;;;6.25;100.00;99196.38;2089075;28;20024;-65
2021/12/28 01:09:31;;;;;;;18.92;3.90;;;;;;;6.28;100.00;99190.19;2097491;28;20436;-64
2021/12/28 01:10:38;;;;;;;16.40;4.88;;;;;;;6.24;100.00;99189.53;2098048;28;20013;-64
2021/12/28 01:11:38;;;;;;;12.32;4.40;;;;;;;6.17;100.00;99195.91;2098079;28;20439;-64
2021/12/28 01:12:39;;;;;;;23.97;5.97;;;;;;;6.18;100.00;99180.31;2098097;28;20024;-65
2021/12/28 01:13:39;;;;;;;13.70;4.03;;;;;;;6.17;100.00;99183.78;2098093;28;20028;-65
2021/12/28 01:14:40;;;;;;;14.80;4.43;;;;;;;6.14;100.00;99188.28;2090562;28;20075;-65
2021/12/28 01:15:41;;;;;;;17.13;4.43;;;;;;;6.08;100.00;99181.66;2090740;28;20031;-65
2021/12/28 01:16:41;;;;;;;12.98;4.45;;;;;;;6.00;100.00;99176.88;2099548;28;20031;-65
2021/12/28 01:17:42;;;;;;;25.40;5.30;;;;;;;6.01;100.00;99185.44;2099559;28;20032;-65
2021/12/28 01:18:42;;;;;;;14.00;4.23;;;;;;;5.96;100.00;99179.66;2099543;28;20025;-64
2021/12/28 01:19:43;;;;;;;17.53;4.10;;;;;;;5.97;100.00;99179.59;2099531;28;20024;-64
2021/12/28 01:20:43;;;;;;;20.15;4.32;;;;;;;6.04;100.00;99177.56;2099412;28;20458;-64
2021/12/28 01:21:44;;;;;;;16.00;3.67;;;;;;;6.01;100.00;99177.69;2099462;28;20044;-64
2021/12/28 01:22:46;;;;;;;17.87;5.10;;;;;;;5.96;100.00;99179.66;2099531;28;20048;-64
2021/12/28 01:23:46;;;;;;;15.02;5.13;;;;;;;5.89;100.00;99179.97;2099446;28;20020;-65
2021/12/28 01:24:46;;;;;;;18.57;4.27;;;;;;;5.88;100.00;99182.63;2090602;28;20025;-65
2021/12/28 01:25:47;;;;;;;16.53;4.33;;;;;;;5.89;100.00;99184.31;2090636;28;20039;-64
2021/12/28 01:26:48;;;;;;;12.45;3.08;;;;;;;5.86;100.00;99179.28;2099408;28;20024;-64
2021/12/28 01:27:48;;;;;;;11.90;3.42;;;;;;;5.78;100.00;99177.91;2090334;28;20056;-64
2021/12/28 01:28:48;;;;;;;15.23;4.20;;;;;;;5.72;100.00;99177.38;2090657;28;20112;-64
2021/12/28 01:29:49;;;;;;;17.63;4.37;;;;;;;5.79;100.00;99178.75;2099402;28;20032;-64
2021/12/28 01:30:50;;;;;;;18.27;4.13;;;;;;;5.79;100.00;99181.34;2090498;28;20329;-65
2021/12/28 01:31:51;;;;;;;20.05;4.47;;;;;;;5.78;100.00;99177.06;2090562;28;20025;-64
2021/12/28 01:32:52;;;;;;;18.27;4.63;;;;;;;5.78;100.00;99171.88;2098683;28;20016;-64
2021/12/28 01:33:52;;;;;;;;;;;;;;;5.86;100.00;99182.72;2099232;28;20073;-64
2021/12/28 01:34:53;;;;;;;12.18;3.70;;;;;;;5.85;100.00;99172.44;2090467;28;20337;-64
2021/12/28 01:35:54;;;;;;;18.83;3.87;;;;;;;5.90;100.00;99178.22;2082203;28;20028;-64
2021/12/28 01:36:54;;;;;;;20.08;4.35;;;;;;;5.97;100.00;99177.00;2090446;28;20037;-64
2021/12/28 01:37:56;;;;;;;16.83;4.17;;;;;;;5.99;100.00;99179.53;2099361;28;20111;-64
2021/12/28 01:38:56;;;;;;;15.70;4.50;;;;;;;5.93;100.00;99175.50;2090442;28;20126;-64
2021/12/28 01:39:57;;;;;;;14.50;4.10;;;;;;;5.96;100.00;99171.91;2090378;28;20106;-65
2021/12/28 01:40:57;;;;;;;16.03;4.27;;;;;;;5.95;100.00;99178.00;2099406;28;20029;-64
2021/12/28 01:41:59;;;;;;;17.98;3.83;;;;;;;5.91;100.00;99178.16;2099201;28;20525;-65
2021/12/28 01:43:10;;;;;;;19.42;4.45;;;;;;;5.89;100.00;99176.56;2099330;28;20081;-64
2021/12/28 01:44:12;;;;;;;15.90;4.30;;;;;;;5.82;100.00;99170.84;2099181;28;20493;-64
2021/12/28 01:45:12;;;;;;;19.73;4.97;;;;;;;5.85;100.00;99168.09;2099198;28;20028;-64
2021/12/28 01:46:12;;;;;;;20.67;4.23;;;;;;;5.81;100.00;99171.75;2099401;28;20491;-64
2021/12/28 01:47:15;;;;;;;18.10;4.43;;;;;;;5.79;100.00;99179.59;2090409;28;20091;-64
2021/12/28 01:48:19;;;;;;;17.80;4.30;;;;;;;5.78;100.00;99169.31;2090729;28;20017;-64
2021/12/28 01:49:19;;;;;;;22.40;3.90;;;;;;;5.78;100.00;99179.66;2099214;28;20080;-64
2021/12/28 01:50:20;;;;;;;19.17;4.47;;;;;;;5.78;100.00;99183.09;2090440;28;20040;-64
2021/12/28 01:51:23;;;;;;;15.20;3.90;;;;;;;5.85;100.00;99177.63;2090457;28;20552;-64
2021/12/28 01:52:23;;;;;;;16.60;3.72;;;;;;;5.88;100.00;99180.03;2090325;28;20029;-64
2021/12/28 01:53:24;;;;;;;15.00;3.83;;;;;;;5.89;100.00;99177.38;2090406;28;20057;-65
2021/12/28 01:54:25;;;;;;;23.98;4.43;;;;;;;5.87;100.00;99176.63;2099010;28;20031;-65
2021/12/28 01:55:26;;;;;;;20.77;4.78;;;;;;;5.91;100.00;99178.16;2090273;28;20103;-64
2021/12/28 01:56:34;;;;;;;13.95;4.10;;;;;;;5.95;100.00;99173.66;2090351;28;20474;-65
2021/12/28 01:57:34;;;;;;;11.93;5.00;;;;;;;5.95;100.00;99176.22;2099229;28;20090;-64
2021/12/28 01:58:35;;;;;;;13.80;4.77;;;;;;;5.97;100.00;99176.16;2099156;28;20033;-64
2021/12/28 01:59:35;;;;;;;16.48;4.35;;;;;;;5.99;100.00;99172.56;2099170;28;20082;-65
2021/12/28 02:00:36;;;;;;;17.30;4.37;;;;;;;6.02;100.00;99174.19;2090197;28;20031;-65
2021/12/28 02:01:37;;;;;;;;;;;;;;;6.08;100.00;99171.31;2090815;28;20013;-64
2021/12/28 02:02:37;;;;;;;13.10;3.97;;;;;;;6.13;100.00;99166.72;2099162;28;19948;-64
2021/12/28 02:03:39;;;;;;;17.77;4.47;;;;;;;6.16;100.00;99173.53;2090218;28;20062;-64
2021/12/28 02:04:40;;;;;;;18.85;4.32;;;;;;;6.14;100.00;99171.00;2082036;28;20017;-64
2021/12/28 02:05:40;;;;;;;14.87;3.17;;;;;;;6.14;100.00;99168.44;2090266;28;20502;-64
2021/12/28 02:06:41;;;;;;;17.23;3.78;;;;;;;6.12;100.00;99167.66;2099140;28;20115;-64
2021/12/28 02:07:41;;;;;;;13.45;3.80;;;;;;;6.14;100.00;99168.44;2099143;28;20104;-64
2021/12/28 02:08:42;;;;;;;14.90;3.93;;;;;;;6.15;100.00;99164.91;2099096;28;20021;-64
2021/12/28 02:09:42;;;;;;;18.67;3.85;;;;;;;6.20;100.00;99172.47;2099149;28;20435;-64
2021/12/28 02:10:45;;;;;;;18.17;4.33;;;;;;;6.20;100.00;99166.44;2099224;28;20054;-64
2021/12/28 02:11:45;;;;;;;15.55;3.00;;;;;;;6.18;100.00;99169.94;2099090;28;20043;-64
2021/12/28 02:12:45;;;;;;;21.13;4.78;;;;;;;6.21;100.00;99168.94;2098992;28;20033;-65
2021/12/28 02:13:47;;;;;;;18.87;4.70;;;;;;;6.25;100.00;99175.63;2099077;28;20059;-64
2021/12/28 02:14:48;;;;;;;19.67;5.03;;;;;;;6.28;100.00;99164.28;2098420;28;20016;-64
2021/12/28 02:15:49;;;;;;;16.40;4.27;;;;;;;6.28;100.00;99161.69;2098445;28;20089;-65
2021/12/28 02:16:49;;;;;;;17.08;3.95;;;;;;;6.29;100.00;99171.13;2099052;28;20038;-65
2021/12/28 02:17:49;;;;;;;20.43;4.30;;;;;;;6.36;100.00;99163.91;2099136;28;20028;-64
2021/12/28 02:18:50;;;;;;;23.13;5.20;;;;;;;6.42;100.00;99166.16;2090123;28;20556;-65
2021/12/28 02:19:50;;;;;;;15.43;3.77;;;;;;;6.42;100.00;99167.00;2090198;28;20053;-64
2021/12/28 02:20:51;;;;;;;19.07;3.63;;;;;;;6.41;100.00;99169.66;2098834;28;20032;-64
2021/12/28 02:21:52;;;;;;;17.02;4.40;;;;;;;6.39;100.00;99161.13;2098820;28;20056;-64
2021/12/28 02:22:52;;;;;;;19.23;4.13;;;;;;;6.35;100.00;99169.97;2099053;28;20024;-65
2021/12/28 02:23:52;;;;;;;14.13;3.43;;;;;;;6.30;100.00;99165.06;2090095;28;20025;-64
2021/12/28 02:24:53;;;;;;;18.03;3.33;;;;;;;6.32;100.00;99168.38;2090002;28;20075;-64
2021/12/28 02:25:54;;;;;;;22.13;4.37;;;;;;;6.37;100.00;99168.97;2098019;28;20471;-64
2021/12/28 02:26:54;;;;;;;15.75;4.47;;;;;;;6.37;100.00;99163.78;2098980;28;20035;-64
2021/12/28 02:27:55;;;;;;;20.37;4.67;;;;;;;6.44;100.00;99162.56;2089844;28;20037;-64
2021/12/28 02:28:56;;;;;;;18.50;4.35;;;;;;;6.48;100.00;99160.66;2090150;28;20025;-65
2021/12/28 02:29:57;;;;;;;18.35;4.97;;;;;;;6.48;100.00;99165.00;2098968;28;20037;-65
2021/12/28 02:30:58;;;;;;;;;;;;;;;6.47;100.00;99158.16;2099380;28;20026;-65
2021/12/28 02:31:59;;;;;;;12.77;3.50;;;;;;;6.47;100.00;99163.31;2098927;28;19920;-65
2021/12/28 02:33:00;;;;;;;22.20;4.47;;;;;;;6.49;100.00;99151.13;2089910;28;20565;-64
2021/12/28 02:34:03;;;;;;;22.75;4.25;;;;;;;6.49;100.00;99157.16;2090089;28;20321;-63
2021/12/28 02:35:10;;;;;;;18.52;3.45;;;;;;;6.49;100.00;99151.97;2098901;28;20027;-65
2021/12/28 02:36:10;;;;;;;17.80;4.22;;;;;;;6.47;100.00;99152.97;2089886;28;20505;-65
2021/12/28 02:37:10;;;;;;;13.17;3.53;;;;;;;6.45;100.00;99150.44;2090042;28;20173;-64
2021/12/28 02:38:12;;;;;;;17.50;4.17;;;;;;;6.43;100.00;99153.13;2098799;28;20028;-64
2021/12/28 02:39:12;;;;;;;;;;;;;;;6.40;100.00;99150.69;2090262;28;20024;-65
2021/12/28 02:40:20;;;;;;;20.67;3.93;;;;;;;6.39;100.00;99151.59;2089921;28;20007;-65
2021/12/28 02:41:21;;;;;;;17.50;5.10;;;;;;;6.36;100.00;99156.94;2098152;28;20282;-64
2021/12/28 02:42:23;;;;;;;16.60;4.57;;;;;;;6.36;100.00;99150.94;2098251;28;20117;-64
2021/12/28 02:43:24;;;;;;;17.20;4.22;;;;;;;6.38;100.00;99149.09;2098708;28;20298;-64
2021/12/28 02:44:24;;;;;;;22.67;4.43;;;;;;;6.49;100.00;99153.72;2098870;28;20465;-64
2021/12/28 02:45:34;;;;;;;20.00;4.20;;;;;;;6.55;100.00;99151.66;2098740;28;20087;-65
2021/12/28 02:46:35;;;;;;;23.35;4.85;;;;;;;6.54;100.00;99151.72;2098841;28;20428;-64
2021/12/28 02:47:37;;;;;;;20.47;4.87;;;;;;;6.53;100.00;99152.63;2089875;28;20036;-65
2021/12/28 02:48:38;;;;;;;18.67;4.13;;;;;;;6.56;100.00;99157.66;2081846;28;20028;-65
2021/12/28 02:49:38;;;;;;;15.23;3.80;;;;;;;6.55;100.00;99153.41;2090008;28;20445;-64
2021/12/28 02:50:42;;;;;;;20.40;5.33;;;;;;;6.52;100.00;99150.97;2089844;28;20036;-64
2021/12/28 02:51:42;;;;;;;22.40;3.85;;;;;;;6.51;100.00;99151.88;2090351;28;20571;-64
2021/12/28 02:52:42;;;;;;;19.80;5.13;;;;;;;6.47;100.00;99145.19;2089715;28;20017;-64
2021/12/28 02:53:45;;;;;;;13.73;4.33;;;;;;;6.46;100.00;99140.94;2089861;28;20075;-65
2021/12/28 02:54:46;;;;;;;23.33;4.78;;;;;;;6.45;100.00;99137.50;2098711;28;20052;-64
2021/12/28 02:55:47;;;;;;;;;;;;;;;6.46;100.00;99140.94;2099113;28;20029;-64
2021/12/28 02:56:47;;;;;;;17.85;3.85;;;;;;;6.55;100.00;99136.09;2098780;28;20253;-64
2021/12/28 02:57:53;;;;;;;11.87;4.07;;;;;;;6.55;100.00;99135.25;2098722;28;20036;-65
2021/12/28 02:58:54;;;;;;;15.95;4.03;;;;;;;6.52;100.00;99135.41;2098740;28;20025;-65
2021/12/28 02:59:54;;;;;;;14.70;3.87;;;;;;;6.50;100.00;99134.66;2098697;28;20023;-65
2021/12/28 03:01:02;;;;;;;16.90;3.93;;;;;;;6.50;100.00;99132.91;2098862;28;20497;-65
2021/12/28 03:02:03;;;;;;;19.20;4.50;;;;;;;6.49;100.00;99125.19;2098657;28;20074;-65
2021/12/28 03:03:07;;;;;;;17.08;3.40;;;;;;;6.47;100.00;99133.06;2098786;28;20436;-65
2021/12/28 03:04:08;;;;;;;16.83;4.55;;;;;;;6.46;100.00;99127.97;2089808;28;20031;-65
2021/12/28 03:05:08;;;;;;;20.38;3.88;;;;;;;6.53;100.00;99126.72;2089837;28;20108;-66
2021/12/28 03:06:11;;;;;;;22.90;4.40;;;;;;;6.57;100.00;99129.06;2098659;28;20097;-64
2021/12/28 03:07:12;;;;;;;16.00;3.60;;;;;;;6.59;100.00;99126.38;2089695;28;20029;-64
2021/12/28 03:08:14;;;;;;;18.60;4.07;;;;;;;6.56;100.00;99122.22;2089796;28;20025;-64
2021/12/28 03:09:18;;;;;;;13.57;3.72;;;;;;;6.51;100.00;99125.97;2098605;28;20016;-65
2021/12/28 03:10:18;;;;;;;16.55;4.47;;;;;;;6.50;100.00;99119.13;2098402;28;20466;-64
2021/12/28 03:11:19;;;;;;;17.07;4.53;;;;;;;6.47;100.00;99120.13;2098556;28;20024;-65
2021/12/28 03:12:20;;;;;;;20.00;4.30;;;;;;;6.46;100.00;99115.84;2098551;28;20036;-65
2021/12/28 03:13:24;;;;;;;11.70;3.30;;;;;;;6.47;100.00;99121.88;2098571;28;20150;-64
2021/12/28 03:14:24;;;;;;;18.33;3.65;;;;;;;6.51;100.00;99128.56;2098581;28;20024;-64
2021/12/28 03:15:25;;;;;;;24.40;4.03;;;;;;;6.54;100.00;99118.03;2098636;28;20021;-64
2021/12/28 03:16:27;;;;;;;22.80;4.40;;;;;;;6.60;100.00;99122.88;2098690;28;20028;-64
2021/12/28 03:17:27;;;;;;;22.95;4.65;;;;;;;6.62;100.00;99121.06;2098542;28;20032;-64
2021/12/28 03:18:28;;;;;;;21.80;4.33;;;;;;;6.62;100.00;99120.19;2098621;28;20036;-64
2021/12/28 03:19:28;;;;;;;17.97;3.93;;;;;;;6.56;100.00;99122.22;2098600;28;20063;-64
2021/12/28 03:20:28;;;;;;;19.73;3.70;;;;;;;6.56;100.00;99123.97;2097877;28;20051;-64
2021/12/28 03:21:30;;;;;;;17.93;3.73;;;;;;;6.65;100.00;99126.06;2097921;28;20056;-64
2021/12/28 03:22:36;;;;;;;16.17;4.47;;;;;;;6.65;100.00;99118.31;2098473;28;20032;-65
2021/12/28 03:23:37;;;;;;;17.70;3.40;;;;;;;6.65;100.00;99120.88;2098534;28;20017;-64
2021/12/28 03:24:37;;;;;;;23.63;4.38;;;;;;;6.62;100.00;99121.06;2098513;28;20027;-64
2021/12/28 03:25:37;;;;;;;21.93;3.73;;;;;;;6.59;100.00;99125.53;2098495;28;20021;-64
2021/12/28 03:26:38;;;;;;;14.70;3.20;;;;;;;6.55;100.00;99124.88;2089543;28;20029;-64
2021/12/28 03:27:40;;;;;;;18.15;3.30;;;;;;;6.52;100.00;99117.25;2089536;28;20060;-64
2021/12/28 03:28:42;;;;;;;16.67;3.25;;;;;;;6.54;100.00;99121.44;2089552;28;20029;-64
2021/12/28 03:29:43;;;;;;;13.65;3.10;;;;;;;6.61;100.00;99121.13;2089828;28;20510;-65
2021/12/28 03:30:43;;;;;;;17.87;3.87;;;;;;;6.63;100.00;99120.13;2089591;28;20017;-64
2021/12/28 03:31:44;;;;;;;11.70;3.72;;;;;;;6.66;100.00;99116.53;2089612;28;20510;-64
2021/12/28 03:32:45;;;;;;;17.27;3.60;;;;;;;6.70;100.00;99118.03;2098521;28;20060;-64
2021/12/28 03:33:48;;;;;;;18.58;3.97;;;;;;;6.76;100.00;99116.88;2098373;28;20048;-64
2021/12/28 03:34:49;;;;;;;13.20;3.30;;;;;;;6.79;100.00;99106.34;2098424;28;20071;-64
2021/12/28 03:35:49;;;;;;;13.97;3.20;;;;;;;6.83;100.00;99111.28;2098468;28;20485;-65
2021/12/28 03:36:49;;;;;;;19.00;3.27;;;;;;;6.82;100.00;99109.56;2098078;28;20432;-65
2021/12/28 03:37:49;;;;;;;12.67;3.07;;;;;;;6.81;100.00;99114.88;2098389;28;20021;-64
2021/12/28 03:38:51;;;;;;;17.43;3.80;;;;;;;6.84;100.00;99114.69;2098480;28;20024;-64
2021/12/28 03:39:51;;;;;;;16.02;3.08;;;;;;;6.86;100.00;99101.63;2098382;28;20043;-65
2021/12/28 03:40:52;;;;;;;18.13;4.67;;;;;;;6.93;100.00;99103.81;2089377;28;20029;-64
2021/12/28 03:41:53;;;;;;;17.88;3.15;;;;;;;6.95;100.00;99096.78;2089679;28;20541;-64
2021/12/28 03:42:53;;;;;;;11.90;2.70;;;;;;;6.92;100.00;99096.94;2098432;28;20101;-64
2021/12/28 03:43:55;;;;;;;15.23;3.30;;;;;;;6.95;100.00;99099.38;2098497;28;20422;-64
2021/12/28 03:44:55;;;;;;;18.90;3.80;;;;;;;6.94;100.00;99100.31;2098376;28;20035;-65
2021/12/28 03:45:56;;;;;;;19.20;3.43;;;;;;;6.95;100.00;99094.19;2098291;28;20032;-64
2021/12/28 03:46:56;;;;;;;13.27;2.90;;;;;;;6.94;100.00;99094.28;2089419;28;20131;-65
2021/12/28 03:47:56;;;;;;;13.10;3.43;;;;;;;6.93;100.00;99092.59;2089550;28;20021;-65
2021/12/28 03:48:57;;;;;;;15.77;3.50;;;;;;;6.91;100.00;99091.88;2098386;28;20020;-64
2021/12/28 03:49:58;;;;;;;17.00;3.45;;;;;;;6.88;100.00;99092.84;2098328;28;20029;-65
2021/12/28 03:50:58;;;;;;;21.77;4.03;;;;;;;6.89;100.00;99091.94;2098399;28;20025;-65
2021/12/28 03:51:59;;;;;;;17.43;3.17;;;;;;;6.92;100.00;99083.16;2098341;28;20115;-65
2021/12/28 03:53:00;;;;;;;23.30;3.78;;;;;;;7.00;100.00;99082.72;2098240;28;20029;-64
2021/12/28 03:54:00;;;;;;;17.60;3.72;;;;;;;7.04;100.00;99085.06;2098279;28;20029;-63
2021/12/28 03:55:01;;;;;;;14.90;3.17;;;;;;;7.09;100.00;99080.44;2098368;28;20470;-65
2021/12/28 03:56:04;;;;;;;16.50;3.70;;;;;;;7.16;100.00;99083.56;2089443;28;20047;-64
2021/12/28 03:57:04;;;;;;;20.42;4.20;;;;;;;7.11;100.00;99085.56;2081310;28;20021;-65
2021/12/28 03:58:05;;;;;;;17.75;3.75;;;;;;;7.08;100.00;99080.53;2089409;28;20049;-65
2021/12/28 03:59:05;;;;;;;14.10;3.28;;;;;;;7.07;100.00;99078.88;2089523;28;20039;-65
2021/12/28 04:00:10;;;;;;;18.73;3.47;;;;;;;7.12;100.00;99071.66;2089348;28;20028;-65
2021/12/28 04:01:13;;;;;;;12.77;2.67;;;;;;;7.13;100.00;99075.09;2089122;28;20036;-65
2021/12/28 04:02:13;;;;;;;14.80;3.35;;;;;;;7.14;100.00;99072.41;2089735;28;20024;-65
2021/12/28 04:03:15;;;;;;;15.70;4.10;;;;;;;7.17;100.00;99074.84;2098561;28;20026;-65
2021/12/28 04:04:15;;;;;;;14.45;3.25;;;;;;;7.24;100.00;99066.69;2089374;28;20029;-65
2021/12/28 04:05:16;;;;;;;10.83;2.57;;;;;;;7.27;100.00;99067.38;2089413;28;20036;-64
2021/12/28 04:06:19;;;;;;;;;;;;;;;7.30;100.00;99074.13;2089709;28;20471;-65
2021/12/28 04:07:21;;;;;;;19.05;2.40;;;;;;;7.31;100.00;99070.63;2092410;28;19909;-65
2021/12/28 04:08:23;;;;;;;;;;;;;;;7.34;100.00;99065.25;2098667;28;20020;-64
2021/12/28 04:09:45;;;;;;;;;;;;;;;7.36;100.00;99063.41;2098705;28;19915;-64
2021/12/28 04:10:55;;;;;;;11.13;2.47;;;;;;;7.34;100.00;99066.09;2097916;28;19909;-64
2021/12/28 04:11:56;;;;;;;13.23;2.55;;;;;;;7.33;100.00;99063.59;2089249;28;20083;-65
2021/12/28 04:12:57;;;;;;;16.23;3.03;;;;;;;7.34;100.00;99065.25;2089408;28;20044;-65
2021/12/28 04:14:03;;;;;;;21.85;3.10;;;;;;;7.38;100.00;99064.16;2097647;28;20557;-64
2021/12/28 04:15:06;;;;;;;15.40;3.00;;;;;;;7.38;100.00;99066.75;2089331;28;20454;-65
2021/12/28 04:16:06;;;;;;;17.92;3.60;;;;;;;7.36;100.00;99063.41;2089648;28;20024;-65
2021/12/28 04:17:07;;;;;;;19.83;3.33;;;;;;;7.39;100.00;99062.41;2089336;28;20069;-65
2021/12/28 04:18:08;;;;;;;21.63;3.33;;;;;;;7.41;100.00;99058.78;2089405;28;20040;-65
2021/12/28 04:19:09;;;;;;;18.05;3.05;;;;;;;7.43;100.00;99064.72;2098243;28;20390;-64
2021/12/28 04:20:13;;;;;;;13.93;2.83;;;;;;;7.47;100.00;99066.19;2098156;28;20035;-65
2021/12/28 04:21:14;;;;;;;21.50;3.88;;;;;;;7.50;100.00;99065.22;2098066;28;20504;-65
2021/12/28 04:22:14;;;;;;;18.08;3.38;;;;;;;7.53;100.00;99069.38;2098161;28;20119;-65
2021/12/28 04:23:15;;;;;;;12.33;2.67;;;;;;;7.53;100.00;99061.59;2098263;28;20035;-65
2021/12/28 04:24:15;;;;;;;16.97;3.27;;;;;;;7.55;100.00;99063.19;2098331;28;20043;-65
2021/12/28 04:25:17;;;;;;;16.80;3.13;;;;;;;7.57;100.00;99065.69;2098258;28;20040;-65
2021/12/28 04:26:19;;;;;;;17.17;3.00;;;;;;;7.56;100.00;99064.84;2089312;28;20072;-65
2021/12/28 04:27:19;;;;;;;15.27;3.65;;;;;;;7.57;100.00;99063.91;2089252;28;20032;-66
2021/12/28 04:28:19;;;;;;;13.50;3.13;;;;;;;7.56;100.00;99058.81;2098276;28;20361;-65
2021/12/28 04:29:19;;;;;;;15.20;3.50;;;;;;;7.59;100.00;99063.81;2098260;28;20024;-65
2021/12/28 04:30:20;;;;;;;12.30;2.40;;;;;;;7.64;100.00;99056.63;2098197;28;20025;-64
2021/12/28 04:31:20;;;;;;;16.37;3.13;;;;;;;7.68;100.00;99063.28;2098222;28;20019;-63
2021/12/28 04:32:20;;;;;;;13.57;3.23;;;;;;;7.67;100.00;99061.59;2098149;28;20334;-65
2021/12/28 04:33:22;;;;;;;10.27;2.70;;;;;;;7.65;100.00;99066.06;2089329;28;20877;-65
2021/12/28 04:34:22;;;;;;;;;;;;;;;7.65;100.00;99073.84;2089854;28;20457;-64
2021/12/28 04:35:22;;;;;;;9.43;2.00;;;;;;;7.62;100.00;99068.84;2098207;28;19913;-64
2021/12/28 04:36:22;;;;;;;13.73;2.70;;;;;;;7.63;100.00;99070.50;2098166;28;20287;-65
2021/12/28 04:37:23;;;;;;;17.67;3.53;;;;;;;7.65;100.00;99063.47;2098196;28;20119;-65
2021/12/28 04:38:23;;;;;;;12.30;2.73;;;;;;;7.69;100.00;99064.13;2098172;28;20117;-65
2021/12/28 04:39:23;;;;;;;16.27;3.67;;;;;;;7.72;100.00;99064.78;2089245;28;20509;-64
2021/12/28 04:40:24;;;;;;;17.83;2.53;;;;;;;7.75;100.00;99063.75;2089244;28;20482;-64
2021/12/28 04:41:24;;;;;;;12.23;3.03;;;;;;;7.81;100.00;99065.16;2098115;28;20020;-64
2021/12/28 04:42:27;;;;;;;13.70;2.47;;;;;;;7.85;100.00;99069.25;2098177;28;20473;-64
2021/12/28 04:43:27;;;;;;;17.33;3.50;;;;;;;7.84;100.00;99067.59;2098115;28;20024;-64
2021/12/28 04:44:27;;;;;;;16.13;2.60;;;;;;;7.85;100.00;99064.91;2098256;28;20056;-65
2021/12/28 04:45:29;;;;;;;16.37;3.73;;;;;;;7.85;100.00;99066.66;2098251;28;20113;-65
2021/12/28 04:46:29;;;;;;;14.57;3.30;;;;;;;7.85;100.00;99064.06;2098234;28;20028;-65
2021/12/28 04:47:30;;;;;;;13.98;3.08;;;;;;;7.89;100.00;99070.72;2098181;28;20477;-65
2021/12/28 04:48:31;;;;;;;14.23;2.73;;;;;;;7.90;100.00;99071.56;2098256;28;20024;-65
2021/12/28 04:49:32;;;;;;;13.15;2.63;;;;;;;7.90;100.00;99075.00;2099659;28;20037;-65
2021/12/28 04:50:37;;;;;;;12.65;2.70;;;;;;;7.91;100.00;99074.09;2099747;28;20097;-65